createdAt,value
2022-10-16T00:01:19.791Z,94275.53
2022-10-16T00:03:47.314Z,94278.66
2022-10-16T00:06:14.675Z,94281.22
2022-10-16T00:08:42.083Z,94280.41
2022-10-16T00:11:15.123Z,94285.16
2022-10-16T00:13:43.279Z,94284.78
2022-10-16T00:16:13.905Z,94282.13
2022-10-16T00:18:41.041Z,94280.50
2022-10-16T00:21:16.473Z,94277.38
2022-10-16T00:23:43.740Z,94281.78
2022-10-16T00:26:16.142Z,94285.97
2022-10-16T00:28:43.142Z,94292.56
2022-10-16T00:31:12.221Z,94289.34
2022-10-16T00:33:40.224Z,94306.75
2022-10-16T00:36:08.627Z,94295.84
2022-10-16T00:38:35.416Z,94299.47
2022-10-16T00:41:02.168Z,94299.91
2022-10-16T00:43:39.430Z,94304.56
2022-10-16T00:46:21.637Z,94302.94
2022-10-16T00:49:03.135Z,94300.28
2022-10-16T00:51:39.775Z,94288.53
2022-10-16T00:54:11.812Z,94284.28
2022-10-16T00:56:38.633Z,94289.16
2022-10-16T00:59:13.259Z,94288.78
2022-10-16T01:01:40.170Z,94295.28
2022-10-16T01:04:06.994Z,94297.25
2022-10-16T01:06:53.947Z,94308.19
2022-10-16T01:09:42.936Z,94305.66
2022-10-16T01:12:09.647Z,94308.66
2022-10-16T01:14:39.547Z,94301.94
2022-10-16T01:17:16.997Z,94305.28
2022-10-16T01:20:03.474Z,94302.28
2022-10-16T01:22:44.008Z,94301.00
2022-10-16T01:25:15.728Z,94295.34
2022-10-16T01:27:44.792Z,94299.16
2022-10-16T01:30:16.363Z,94287.09
2022-10-16T01:32:46.906Z,94294.53
2022-10-16T01:35:16.641Z,94282.69
2022-10-16T01:38:20.388Z,94288.47
2022-10-16T01:40:52.646Z,94281.97
2022-10-16T01:43:24.090Z,94284.78
2022-10-16T01:45:50.952Z,94292.44
2022-10-16T01:48:22.197Z,94286.38
2022-10-16T01:50:55.857Z,94289.03
2022-10-16T01:53:23.386Z,94291.28
2022-10-16T01:55:50.590Z,94294.75
2022-10-16T01:58:17.357Z,94295.44
2022-10-16T02:00:46.596Z,94293.34
2022-10-16T02:03:15.278Z,94286.50
2022-10-16T02:06:08.723Z,94294.59
2022-10-16T02:08:36.551Z,94299.03
2022-10-16T02:11:03.833Z,94301.81
2022-10-16T02:13:34.729Z,94303.00
2022-10-16T02:16:01.568Z,94302.75
2022-10-16T02:18:31.838Z,94308.53
2022-10-16T02:21:01.949Z,94317.81
2022-10-16T02:23:48.885Z,94318.16
2022-10-16T02:26:20.592Z,94326.75
2022-10-16T02:28:49.614Z,94324.19
2022-10-16T02:31:21.148Z,94331.84
2022-10-16T02:33:48.139Z,94324.31
2022-10-16T02:36:15.023Z,94327.09
2022-10-16T02:38:42.252Z,94328.38
2022-10-16T02:41:09.107Z,94322.56
2022-10-16T02:43:35.919Z,94323.50
2022-10-16T02:46:03.139Z,94326.28
2022-10-16T02:48:29.844Z,94325.47
2022-10-16T02:50:56.641Z,94331.72
2022-10-16T02:53:23.444Z,94326.63
2022-10-16T02:55:50.143Z,94328.13
2022-10-16T02:58:16.931Z,94330.09
2022-10-16T03:00:43.760Z,94337.19
2022-10-16T03:03:10.562Z,94340.09
2022-10-16T03:05:37.320Z,94340.88
2022-10-16T03:08:04.172Z,94333.13
2022-10-16T03:10:31.721Z,94338.00
2022-10-16T03:12:58.471Z,94338.56
2022-10-16T03:15:25.234Z,94346.22
2022-10-16T03:17:52.076Z,94348.91
2022-10-16T03:20:18.827Z,94347.72
2022-10-16T03:22:45.592Z,94358.50
2022-10-16T03:25:12.357Z,94353.75
2022-10-16T03:27:39.086Z,94363.13
2022-10-16T03:30:06.739Z,94361.72
2022-10-16T03:35:00.591Z,94356.03
2022-10-16T03:37:27.804Z,94360.09
2022-10-16T03:39:54.759Z,94363.44
2022-10-16T03:42:21.605Z,94358.09
2022-10-16T03:44:48.342Z,94363.19
2022-10-16T03:47:15.099Z,94359.59
2022-10-16T03:49:41.905Z,94350.13
2022-10-16T03:52:08.718Z,94353.56
2022-10-16T03:54:35.484Z,94351.09
2022-10-16T03:57:02.247Z,94355.94
2022-10-16T03:59:28.996Z,94348.63
2022-10-16T04:01:55.742Z,94341.81
2022-10-16T04:04:22.575Z,94336.28
2022-10-16T04:06:49.314Z,94341.13
2022-10-16T04:09:16.040Z,94339.41
2022-10-16T04:11:42.849Z,94338.50
2022-10-16T04:14:09.908Z,94345.09
2022-10-16T04:16:36.623Z,94343.34
2022-10-16T04:19:04.113Z,94343.78
2022-10-16T04:21:30.879Z,94354.47
2022-10-16T04:23:57.610Z,94351.81
2022-10-16T04:26:24.393Z,94343.59
2022-10-16T04:28:51.146Z,94355.16
2022-10-16T04:31:17.908Z,94353.16
2022-10-16T04:33:44.965Z,94359.22
2022-10-16T04:36:11.796Z,94359.56
2022-10-16T04:38:38.656Z,94366.38
2022-10-16T04:41:05.580Z,94370.78
2022-10-16T04:43:32.449Z,94372.28
2022-10-16T04:45:59.360Z,94372.63
2022-10-16T04:48:26.361Z,94366.50
2022-10-16T04:50:55.250Z,94376.28
2022-10-16T04:53:22.321Z,94374.31
2022-10-16T04:55:49.128Z,94373.50
2022-10-16T04:58:15.863Z,94383.69
2022-10-16T05:00:42.664Z,94385.66
2022-10-16T05:03:09.988Z,94390.59
2022-10-16T05:05:37.526Z,94395.88
2022-10-16T05:08:05.034Z,94392.25
2022-10-16T05:10:31.814Z,94397.00
2022-10-16T05:12:58.735Z,94401.53
2022-10-16T05:15:26.378Z,94398.06
2022-10-16T05:17:55.055Z,94392.28
2022-10-16T05:20:22.044Z,94401.91
2022-10-16T05:22:49.206Z,94396.59
2022-10-16T05:25:16.231Z,94401.72
2022-10-16T05:27:43.040Z,94399.88
2022-10-16T05:30:12.402Z,94396.06
2022-10-16T05:32:39.676Z,94396.66
2022-10-16T05:35:08.777Z,94400.50
2022-10-16T05:37:38.567Z,94403.72
2022-10-16T05:40:05.942Z,94403.19
2022-10-16T05:42:32.664Z,94405.75
2022-10-16T05:44:59.448Z,94408.75
2022-10-16T05:47:26.328Z,94407.97
2022-10-16T05:49:53.191Z,94409.00
2022-10-16T05:52:20.111Z,94420.84
2022-10-16T05:54:46.905Z,94414.78
2022-10-16T05:57:13.696Z,94416.16
2022-10-16T05:59:40.426Z,94421.59
2022-10-16T06:02:07.162Z,94424.09
2022-10-16T06:04:33.957Z,94424.75
2022-10-16T06:07:01.593Z,94433.78
2022-10-16T06:09:28.597Z,94435.13
2022-10-16T06:11:55.956Z,94440.03
2022-10-16T06:14:22.655Z,94444.84
2022-10-16T06:16:49.409Z,94444.69
2022-10-16T06:19:17.351Z,94448.69
2022-10-16T06:21:44.420Z,94456.03
2022-10-16T06:24:11.462Z,94450.69
2022-10-16T06:26:38.548Z,94450.13
2022-10-16T06:29:05.398Z,94458.16
2022-10-16T06:31:34.495Z,94461.44
2022-10-16T06:34:02.133Z,94456.50
2022-10-16T06:36:29.065Z,94456.19
2022-10-16T06:38:55.877Z,94458.91
2022-10-16T06:41:23.815Z,94467.00
2022-10-16T06:43:50.663Z,94469.19
2022-10-16T06:46:21.038Z,94466.72
2022-10-16T06:48:48.188Z,94468.63
2022-10-16T06:51:20.527Z,94469.66
2022-10-16T06:54:05.680Z,94478.41
2022-10-16T06:56:33.718Z,94483.00
2022-10-16T06:59:00.957Z,94477.13
2022-10-16T07:01:28.177Z,94482.03
2022-10-16T07:03:55.054Z,94484.44
2022-10-16T07:06:23.778Z,94484.19
2022-10-16T07:08:51.158Z,94488.41
2022-10-16T07:11:20.011Z,94487.63
2022-10-16T07:13:50.976Z,94489.84
2022-10-16T07:16:23.408Z,94487.75
2022-10-16T07:18:50.533Z,94491.38
2022-10-16T07:21:20.472Z,94494.44
2022-10-16T07:23:51.956Z,94499.25
2022-10-16T07:26:18.937Z,94497.72
2022-10-16T07:28:46.033Z,94498.50
2022-10-16T07:31:14.553Z,94496.16
2022-10-16T07:33:44.123Z,94499.16
2022-10-16T07:36:15.858Z,94493.72
2022-10-16T07:38:43.801Z,94496.34
2022-10-16T07:41:13.590Z,94499.44
2022-10-16T07:43:41.067Z,94498.47
2022-10-16T07:46:08.023Z,94503.16
2022-10-16T07:48:35.867Z,94500.38
2022-10-16T07:51:05.119Z,94504.88
2022-10-16T07:53:32.432Z,94501.44
2022-10-16T07:56:04.092Z,94504.97
2022-10-16T07:58:31.543Z,94508.84
2022-10-16T08:00:58.827Z,94508.06
2022-10-16T08:03:26.401Z,94505.88
2022-10-16T08:05:53.347Z,94508.09
2022-10-16T08:08:20.267Z,94505.94
2022-10-16T08:10:47.236Z,94511.69
2022-10-16T08:13:16.264Z,94504.38
2022-10-16T08:15:44.175Z,94505.84
2022-10-16T08:18:12.540Z,94504.00
2022-10-16T08:20:39.735Z,94503.94
2022-10-16T08:23:07.793Z,94498.44
2022-10-16T08:25:38.332Z,94503.06
2022-10-16T08:28:09.017Z,94504.47
2022-10-16T08:30:35.803Z,94505.88
2022-10-16T08:33:02.773Z,94496.00
2022-10-16T08:35:29.487Z,94503.81
2022-10-16T08:37:56.298Z,94500.97
2022-10-16T08:40:29.570Z,94502.97
2022-10-16T08:43:17.745Z,94498.59
2022-10-16T08:45:50.409Z,94500.25
2022-10-16T08:48:35.995Z,94503.00
2022-10-16T08:51:04.184Z,94501.00
2022-10-16T08:53:48.162Z,94499.41
2022-10-16T08:56:15.064Z,94509.22
2022-10-16T08:58:41.862Z,94506.81
2022-10-16T09:01:17.738Z,94508.22
2022-10-16T09:04:16.771Z,94524.72
2022-10-16T09:06:59.295Z,94515.53
2022-10-16T09:09:26.029Z,94516.75
2022-10-16T09:12:11.155Z,94512.31
2022-10-16T09:15:14.556Z,94503.25
2022-10-16T09:18:00.155Z,94504.41
2022-10-16T09:20:41.030Z,94501.13
2022-10-16T09:23:19.316Z,94501.09
2022-10-16T09:25:49.965Z,94498.59
2022-10-16T09:28:18.373Z,94501.91
2022-10-16T09:30:46.140Z,94504.00
2022-10-16T09:33:13.244Z,94503.22
2022-10-16T09:35:40.979Z,94502.06
2022-10-16T09:38:08.265Z,94507.44
2022-10-16T09:40:40.101Z,94498.59
2022-10-16T09:43:25.540Z,94494.28
2022-10-16T09:46:02.671Z,94491.97
2022-10-16T09:48:44.661Z,94495.56
2022-10-16T09:51:22.744Z,94489.34
2022-10-16T09:53:49.886Z,94486.41
2022-10-16T09:56:25.863Z,94487.22
2022-10-16T09:58:54.640Z,94484.06
2022-10-16T10:01:22.504Z,94492.47
2022-10-16T10:03:50.613Z,94486.34
2022-10-16T10:06:29.719Z,94490.00
2022-10-16T10:08:57.975Z,94485.31
2022-10-16T10:11:44.897Z,94476.88
2022-10-16T10:14:31.743Z,94480.94
2022-10-16T10:17:07.708Z,94476.91
2022-10-16T10:19:40.572Z,94476.41
2022-10-16T10:22:27.387Z,94474.91
2022-10-16T10:26:25.565Z,94469.72
2022-10-16T10:29:04.964Z,94475.53
2022-10-16T10:31:40.022Z,94472.13
2022-10-16T10:34:25.592Z,94468.22
2022-10-16T10:37:05.402Z,94469.38
2022-10-16T10:40:15.676Z,94460.78
2022-10-16T10:42:54.810Z,94462.59
2022-10-16T10:45:34.353Z,94460.72
2022-10-16T10:48:24.938Z,94460.22
2022-10-16T10:51:33.152Z,94451.63
2022-10-16T10:54:17.909Z,94456.28
2022-10-16T10:57:12.768Z,94450.00
2022-10-16T11:00:24.073Z,94447.97
2022-10-16T11:02:59.641Z,94442.84
2022-10-16T11:05:40.331Z,94441.69
2022-10-16T11:08:22.955Z,94446.28
2022-10-16T11:10:54.163Z,94434.97
2022-10-16T11:13:35.219Z,94430.59
2022-10-16T11:16:08.673Z,94430.94
2022-10-16T11:18:57.421Z,94431.22
2022-10-16T11:21:30.213Z,94430.94
2022-10-16T11:24:20.405Z,94432.72
2022-10-16T11:26:47.950Z,94429.28
2022-10-16T11:29:21.729Z,94418.38
2022-10-16T11:31:51.689Z,94421.34
2022-10-16T11:34:38.272Z,94418.41
2022-10-16T11:37:15.414Z,94422.47
2022-10-16T11:39:43.703Z,94425.97
2022-10-16T11:42:35.315Z,94421.09
2022-10-16T11:45:04.555Z,94422.81
2022-10-16T11:48:05.796Z,94427.94
2022-10-16T11:50:38.125Z,94428.19
2022-10-16T11:53:08.825Z,94428.72
2022-10-16T11:55:41.735Z,94426.16
2022-10-16T11:58:30.156Z,94426.63
2022-10-16T12:00:59.224Z,94420.97
2022-10-16T12:03:35.656Z,94420.81
2022-10-16T12:06:25.500Z,94430.84
2022-10-16T12:08:53.568Z,94426.03
2022-10-16T12:11:40.861Z,94422.72
2022-10-16T12:14:08.324Z,94428.53
2022-10-16T12:16:35.164Z,94425.47
2022-10-16T12:19:21.258Z,94423.97
2022-10-16T12:21:48.124Z,94429.97
2022-10-16T12:24:33.704Z,94426.13
2022-10-16T12:27:01.143Z,94427.22
2022-10-16T12:29:55.810Z,94426.06
2022-10-16T12:32:48.197Z,94428.63
2022-10-16T12:35:27.996Z,94438.66
2022-10-16T12:37:55.600Z,94432.56
2022-10-16T12:40:29.957Z,94428.09
2022-10-16T12:42:56.776Z,94433.09
2022-10-16T12:45:34.635Z,94427.53
2022-10-16T12:48:03.510Z,94431.19
2022-10-16T12:50:38.675Z,94422.34
2022-10-16T12:53:22.740Z,94430.94
2022-10-16T12:56:11.148Z,94433.84
2022-10-16T12:58:40.988Z,94439.63
2022-10-16T13:01:23.091Z,94440.28
2022-10-16T13:04:17.808Z,94432.09
2022-10-16T13:07:03.332Z,94434.00
2022-10-16T13:09:52.489Z,94443.19
2022-10-16T13:12:36.786Z,94440.38
2022-10-16T13:15:22.477Z,94432.94
2022-10-16T13:18:00.839Z,94441.44
2022-10-16T13:20:27.584Z,94439.81
2022-10-16T13:23:17.072Z,94437.19
2022-10-16T13:25:55.368Z,94438.22
2022-10-16T13:28:24.187Z,94430.97
2022-10-16T13:30:56.044Z,94428.41
2022-10-16T13:33:38.372Z,94432.84
2022-10-16T13:36:06.079Z,94435.88
2022-10-16T13:38:34.914Z,94447.88
2022-10-16T13:41:07.293Z,94446.94
2022-10-16T13:43:47.048Z,94444.72
2022-10-16T13:46:16.953Z,94443.56
2022-10-16T13:48:44.449Z,94439.81
2022-10-16T13:51:15.377Z,94445.41
2022-10-16T13:53:42.829Z,94445.31
2022-10-16T13:56:18.548Z,94441.13
2022-10-16T13:58:45.865Z,94444.13
2022-10-16T14:01:28.581Z,94446.06
2022-10-16T14:04:16.944Z,94442.22
2022-10-16T14:06:46.116Z,94442.94
2022-10-16T14:09:21.916Z,94444.41
2022-10-16T14:11:57.263Z,94454.38
2022-10-16T14:14:24.697Z,94447.22
2022-10-16T14:16:51.919Z,94456.47
2022-10-16T14:19:25.527Z,94456.97
2022-10-16T14:21:53.081Z,94458.38
2022-10-16T14:24:33.004Z,94460.59
2022-10-16T14:26:59.926Z,94463.06
2022-10-16T14:29:28.616Z,94463.69
2022-10-16T14:32:00.325Z,94469.28
2022-10-16T14:34:40.938Z,94467.56
2022-10-16T14:37:31.245Z,94474.53
2022-10-16T14:39:58.335Z,94469.53
2022-10-16T14:42:26.233Z,94475.41
2022-10-16T14:44:54.819Z,94479.53
2022-10-16T14:47:26.779Z,94474.72
2022-10-16T14:49:59.955Z,94479.03
2022-10-16T14:52:26.914Z,94482.81
2022-10-16T14:54:55.778Z,94482.47
2022-10-16T14:57:25.344Z,94492.06
2022-10-16T14:59:52.669Z,94494.28
2022-10-16T15:02:23.346Z,94495.59
2022-10-16T15:04:50.361Z,94504.44
2022-10-16T15:07:17.269Z,94497.41
2022-10-16T15:09:48.158Z,94507.09
2022-10-16T15:12:17.417Z,94509.16
2022-10-16T15:14:44.386Z,94508.91
2022-10-16T15:17:16.393Z,94508.69
2022-10-16T15:19:45.484Z,94517.69
2022-10-16T15:22:13.438Z,94518.63
2022-10-16T15:24:40.569Z,94520.66
2022-10-16T15:27:07.464Z,94523.13
2022-10-16T15:29:34.239Z,94516.84
2022-10-16T15:32:00.936Z,94523.66
2022-10-16T15:34:27.695Z,94526.28
2022-10-16T15:36:56.222Z,94529.50
2022-10-16T15:39:23.019Z,94533.03
2022-10-16T15:41:54.275Z,94536.78
2022-10-16T15:44:23.957Z,94536.91
2022-10-16T15:46:50.696Z,94537.41
2022-10-16T15:49:17.591Z,94545.00
2022-10-16T15:51:44.452Z,94546.91
2022-10-16T15:54:11.256Z,94552.84
2022-10-16T15:56:38.386Z,94552.31
2022-10-16T15:59:06.180Z,94552.94
2022-10-16T16:01:35.051Z,94561.34
2022-10-16T16:04:07.499Z,94555.06
2022-10-16T16:06:45.748Z,94565.31
2022-10-16T16:09:13.977Z,94563.28
2022-10-16T16:11:40.711Z,94562.88
2022-10-16T16:14:08.152Z,94573.84
2022-10-16T16:16:38.486Z,94566.09
2022-10-16T16:19:11.458Z,94575.22
2022-10-16T16:21:39.418Z,94571.47
2022-10-16T16:24:09.381Z,94569.19
2022-10-16T16:26:40.323Z,94581.13
2022-10-16T16:29:07.800Z,94582.44
2022-10-16T16:31:35.845Z,94581.38
2022-10-16T16:34:04.074Z,94586.09
2022-10-16T16:36:30.944Z,94587.63
2022-10-16T16:38:58.618Z,94594.88
2022-10-16T16:41:28.421Z,94598.56
2022-10-16T16:43:56.047Z,94603.97
2022-10-16T16:46:23.197Z,94612.88
2022-10-16T16:48:54.538Z,94611.38
2022-10-16T16:51:21.410Z,94615.31
2022-10-16T16:53:50.597Z,94623.69
2022-10-16T16:56:18.292Z,94621.91
2022-10-16T16:58:49.475Z,94633.88
2022-10-16T17:01:21.285Z,94631.78
2022-10-16T17:03:50.929Z,94633.72
2022-10-16T17:06:20.791Z,94629.66
2022-10-16T17:08:48.836Z,94635.50
2022-10-16T17:11:24.159Z,94647.53
2022-10-16T17:13:55.637Z,94644.03
2022-10-16T17:16:26.188Z,94644.03
2022-10-16T17:18:54.107Z,94642.31
2022-10-16T17:21:21.540Z,94643.97
2022-10-16T17:23:48.384Z,94645.56
2022-10-16T17:26:17.098Z,94657.47
2022-10-16T17:28:44.583Z,94650.88
2022-10-16T17:31:23.515Z,94651.00
2022-10-16T17:33:52.509Z,94655.59
2022-10-16T17:36:21.039Z,94655.09
2022-10-16T17:38:47.751Z,94648.31
2022-10-16T17:41:17.701Z,94656.03
2022-10-16T17:43:45.311Z,94654.25
2022-10-16T17:46:12.913Z,94654.25
2022-10-16T17:48:45.517Z,94655.72
2022-10-16T17:51:13.956Z,94658.16
2022-10-16T17:53:40.822Z,94661.78
2022-10-16T17:56:10.371Z,94667.03
2022-10-16T17:58:37.531Z,94662.06
2022-10-16T18:01:38.209Z,94665.28
2022-10-16T18:04:07.290Z,94657.91
2022-10-16T18:06:34.705Z,94673.72
2022-10-16T18:09:02.180Z,94671.84
2022-10-16T18:11:29.331Z,94680.03
2022-10-16T18:13:57.304Z,94672.03
2022-10-16T18:16:24.951Z,94685.66
2022-10-16T18:18:52.165Z,94679.44
2022-10-16T18:21:20.206Z,94684.97
2022-10-16T18:23:51.012Z,94681.88
2022-10-16T18:26:18.875Z,94686.34
2022-10-16T18:28:45.773Z,94690.16
2022-10-16T18:31:14.504Z,94694.13
2022-10-16T18:33:47.905Z,94687.50
2022-10-16T18:36:15.796Z,94697.25
2022-10-16T18:38:42.975Z,94695.09
2022-10-16T18:41:09.970Z,94703.34
2022-10-16T18:43:38.136Z,94710.94
2022-10-16T18:46:06.351Z,94715.16
2022-10-16T18:48:33.512Z,94713.94
2022-10-16T18:51:20.965Z,94719.19
2022-10-16T18:53:50.300Z,94721.91
2022-10-16T18:56:18.697Z,94724.06
2022-10-16T18:58:48.361Z,94726.84
2022-10-16T19:01:20.852Z,94728.19
2022-10-16T19:03:48.842Z,94730.63
2022-10-16T19:06:17.049Z,94739.66
2022-10-16T19:08:44.200Z,94740.84
2022-10-16T19:11:12.081Z,94742.56
2022-10-16T19:13:38.902Z,94744.88
2022-10-16T19:16:19.721Z,94749.56
2022-10-16T19:18:47.886Z,94746.31
2022-10-16T19:21:15.345Z,94748.13
2022-10-16T19:23:42.416Z,94746.34
2022-10-16T19:26:12.084Z,94761.00
2022-10-16T19:28:39.205Z,94762.13
2022-10-16T19:31:08.431Z,94763.28
2022-10-16T19:33:35.459Z,94752.94
2022-10-16T19:36:09.349Z,94762.25
2022-10-16T19:38:36.152Z,94761.00
2022-10-16T19:41:10.598Z,94766.59
2022-10-16T19:43:37.462Z,94772.34
2022-10-16T19:46:09.310Z,94767.97
2022-10-16T19:48:36.225Z,94763.88
2022-10-16T19:51:04.394Z,94763.56
2022-10-16T19:53:31.721Z,94778.69
2022-10-16T19:55:58.955Z,94773.19
2022-10-16T19:58:26.397Z,94773.56
2022-10-16T20:00:54.744Z,94775.66
2022-10-16T20:03:21.530Z,94776.13
2022-10-16T20:05:55.277Z,94782.31
2022-10-16T20:08:22.704Z,94784.50
2022-10-16T20:10:54.021Z,94784.16
2022-10-16T20:13:22.142Z,94784.53
2022-10-16T20:15:49.209Z,94793.16
2022-10-16T20:18:16.792Z,94788.31
2022-10-16T20:20:46.872Z,94791.44
2022-10-16T20:23:13.665Z,94784.78
2022-10-16T20:25:42.352Z,94792.97
2022-10-16T20:28:09.902Z,94790.03
2022-10-16T20:30:41.968Z,94790.88
2022-10-16T20:33:09.387Z,94800.41
2022-10-16T20:35:41.611Z,94803.53
2022-10-16T20:38:08.753Z,94798.66
2022-10-16T20:40:36.916Z,94802.16
2022-10-16T20:43:04.188Z,94801.44
2022-10-16T20:45:39.832Z,94808.78
2022-10-16T20:48:12.445Z,94807.03
2022-10-16T20:50:43.297Z,94809.44
2022-10-16T20:53:10.067Z,94806.22
2022-10-16T20:55:37.872Z,94799.81
2022-10-16T20:58:05.500Z,94803.63
2022-10-16T21:00:32.605Z,94799.44
2022-10-16T21:02:59.355Z,94805.72
2022-10-16T21:05:30.002Z,94798.03
2022-10-16T21:07:58.181Z,94796.41
2022-10-16T21:10:24.997Z,94800.50
2022-10-16T21:12:55.448Z,94800.03
2022-10-16T21:15:22.598Z,94812.69
2022-10-16T21:17:49.793Z,94801.63
2022-10-16T21:20:16.841Z,94806.06
2022-10-16T21:22:43.762Z,94803.16
2022-10-16T21:25:10.607Z,94810.72
2022-10-16T21:27:41.011Z,94806.16
2022-10-16T21:30:09.570Z,94813.03
2022-10-16T21:32:40.503Z,94810.59
2022-10-16T21:35:07.999Z,94811.06
2022-10-16T21:37:35.207Z,94815.13
2022-10-16T21:40:02.223Z,94813.63
2022-10-16T21:42:29.373Z,94821.03
2022-10-16T21:44:56.620Z,94821.94
2022-10-16T21:47:23.545Z,94824.41
2022-10-16T21:49:50.429Z,94823.59
2022-10-16T21:52:17.239Z,94829.38
2022-10-16T21:54:44.052Z,94833.09
2022-10-16T21:57:10.807Z,94838.75
2022-10-16T21:59:37.552Z,94836.84
2022-10-16T22:02:04.282Z,94838.94
2022-10-16T22:04:31.471Z,94844.28
2022-10-16T22:06:58.419Z,94849.81
2022-10-16T22:09:25.214Z,94850.88
2022-10-16T22:11:51.988Z,94857.22
2022-10-16T22:14:20.668Z,94858.53
2022-10-16T22:16:48.257Z,94861.19
2022-10-16T22:19:16.397Z,94867.34
2022-10-16T22:21:43.853Z,94867.06
2022-10-16T22:24:10.651Z,94865.91
2022-10-16T22:26:38.455Z,94867.53
2022-10-16T22:29:05.720Z,94875.53
2022-10-16T22:31:33.139Z,94869.94
2022-10-16T22:34:01.759Z,94872.38
2022-10-16T22:36:29.491Z,94875.53
2022-10-16T22:38:56.307Z,94875.63
2022-10-16T22:41:24.695Z,94880.53
2022-10-16T22:43:51.920Z,94876.19
2022-10-16T22:46:27.858Z,94878.16
2022-10-16T22:48:56.032Z,94884.25
2022-10-16T22:51:24.521Z,94885.19
2022-10-16T22:53:51.665Z,94889.19
2022-10-16T22:56:20.331Z,94882.53
2022-10-16T22:58:47.327Z,94881.03
2022-10-16T23:01:20.565Z,94889.78
2022-10-16T23:03:47.336Z,94888.28
2022-10-16T23:06:14.076Z,94894.31
2022-10-16T23:08:44.259Z,94891.06
2022-10-16T23:11:12.977Z,94895.34
2022-10-16T23:13:40.211Z,94892.56
2022-10-16T23:16:07.405Z,94898.09
2022-10-16T23:18:34.675Z,94894.03
2022-10-16T23:21:06.723Z,94897.91
2022-10-16T23:23:35.624Z,94895.81
2022-10-16T23:26:02.588Z,94899.25
2022-10-16T23:28:29.412Z,94899.16
2022-10-16T23:30:56.225Z,94904.09
2022-10-16T23:33:22.993Z,94894.06
2022-10-16T23:35:49.763Z,94897.84
2022-10-16T23:38:16.510Z,94904.75
2022-10-16T23:40:43.282Z,94899.66
2022-10-16T23:43:10.042Z,94902.22
2022-10-16T23:45:36.811Z,94904.97
2022-10-16T23:48:03.622Z,94903.56
2022-10-16T23:50:30.801Z,94904.16
2022-10-16T23:52:57.586Z,94911.19
2022-10-16T23:55:24.379Z,94902.41
2022-10-16T23:57:51.223Z,94908.75
